Detalii statie SADELLI PRODCOM [00001D03]

Toti senzorii

Date Temperatura solului [C]Precipitatii [mm]Voltaj baterie [mV]Leaf Wetness [Min]HC Air temperature [C]HC Relative humidity [%]Punctul de roua [C]
medieminmaxsumaultimatimpmedieminmaxmediemediemin
2019-06-15 17:00:00 39 39 39.2 0 7166 34.71 34.36 35.07 0 0
2019-06-15 18:00:00 38 37.3 38.9 0 7030 34.72 33.78 35.16 0 0 0
2019-06-15 19:00:00 36.4 35.8 37.1 0 6992 34.05 33.24 34.74 0 0 0
2019-06-15 20:00:00 35 34.5 35.7 0 6844 31.79 30.62 32.97 0.01 0 0
2019-06-15 21:00:00 33.7 33.1 34.5 0 6756 28.5 26.7 30.26 0 0 0
2019-06-15 22:00:00 32.3 31.8 33 0 6748 25.71 25.42 26.08 0 0 0
2019-06-15 23:00:00 31.2 30.8 31.8 0 6748 24.86 24.38 25.44 0 0 0
2019-06-16 00:00:00 30.3 29.9 30.8 0 6728 24.4 23.45 25.26 2.52 0
2019-06-16 01:00:00 29.5 29.3 29.9 0 6728 23.88 23.44 24.37 0 0 0
2019-06-16 02:00:00 28.9 28.7 29.3 0 6728 23.15 22.89 23.61 0 0 0
2019-06-16 03:00:00 28.3 28.1 28.7 0 6728 22.53 22.1 22.81 0 0 0
2019-06-16 04:00:00 27.7 27.3 28.1 0 6718 21.3 21.01 22.1 0 0 0
2019-06-16 05:00:00 27.1 27 27.6 0 6708 20.96 20.83 21.19 0 0 0
2019-06-16 06:00:00 26.7 26.7 26.9 0 6756 21.25 20.78 22.02 0 0 0
2019-06-16 07:00:00 26.8 26.7 27 0 6844 23.39 22.13 24.86 0 0 0
2019-06-16 08:00:00 27.9 27.3 28.7 0 6922 26.46 25.25 28.23 0 0 0
2019-06-16 09:00:00 29.6 28.8 30.5 0 6962 28.93 28.19 29.74 0 0 0
2019-06-16 10:00:00 31.7 30.6 32.8 0 7186 30.71 29.35 33.32 0 0 0
2019-06-16 11:00:00 33.9 32.9 35.1 0 7186 32.61 31.47 34.44 0 0 0
2019-06-16 12:00:00 36 35.1 36.9 0 7186 32.77 32.08 33.21 0 0 0
2019-06-16 13:00:00 37.8 36.9 38.7 0 7176 34.74 33.5 36.09 0 0 0
2019-06-16 14:00:00 39.2 38.7 39.7 0 7186 35.31 33.58 37.59 10.03 1.3 0
2019-06-16 15:00:00 39.9 39.6 40.1 0 7176 34.71 33.76 36.02 39.99 0
2019-06-16 16:00:00 39.4 39.2 39.8 0 7186 33.9 33.38 34.95 2.36 0
2019-06-16 17:00:00 38.5 38.4 38.8 0 7186 33.23 33.11 33.42 23.88 0
2019-06-16 18:00:00 38 37.4 38.6 0 6874 32.72 31 33.5 36.86 0
2019-06-16 19:00:00 36.1 35.2 37.1 0 6776 29.86 29.12 30.77 0.22 0
2019-06-16 20:00:00 34.4 33.9 35.1 0 6728 28.31 25.98 29.25 30.76 10.1 0
2019-06-16 21:00:00 33 32.4 33.7 0 6748 24.2 23.36 25.39 0 0 0
2019-06-16 22:00:00 31.8 31.3 32.2 3.6 6738 22.86 20.7 23.85 0 0 0
2019-06-16 23:00:00 29 27.8 31.1 10.2 6738 19.88 19.51 20.36 0 0 0
2019-06-17 00:00:00 26.9 26.4 27.7 2 6728 19.05 18.85 19.49 0 0 0
2019-06-17 01:00:00 26 25.8 26.4 0.4 6718 18.8 18.71 18.91 0 0 0
2019-06-17 02:00:00 25.4 25.2 25.8 0 6678 18.83 18.75 18.91 8.33 0
2019-06-17 03:00:00 24.8 24.5 25.2 0.4 6678 18.44 17.91 18.9 100 18.4 17.9
2019-06-17 04:00:00 24 23.5 24.4 2 6678 18.03 17.86 18.19 79.34 13.7 3.2
2019-06-17 05:00:00 23.2 23 23.4 0 6650 18.1 18 18.21 25.87 -2.8 -11.6
2019-06-17 06:00:00 22.9 22.8 23.1 0 6748 18.5 18.17 18.85 9.06 0
2019-06-17 07:00:00 23.1 22.9 23.6 0 6874 19.75 18.73 20.9 0 0 0
2019-06-17 08:00:00 24.1 23.6 25.1 0 6962 21.82 20.76 22.97 0 0 0
2019-06-17 09:00:00 25.9 25.1 26.8 0 7000 23.89 22.23 24.93 0 0 0
2019-06-17 10:00:00 27.6 27 28.4 0 7196 24.38 23.15 25.09 0 0 0
2019-06-17 11:00:00 28.8 28.5 29.1 0 7196 24.67 23.55 25.4 0 0 0
2019-06-17 12:00:00 28.7 28.4 29.1 0 7166 24.32 23.83 24.93 0 0 0
2019-06-17 13:00:00 28.2 28.1 28.4 0 7186 24.59 23.79 25.37 0 0 0
2019-06-17 14:00:00 29.1 28.3 30.2 0 7186 26.45 25.42 28.75 0 0 0
2019-06-17 15:00:00 30.8 30.2 31.3 0 7186 28.1 27.27 29.43 0 0 0
2019-06-17 16:00:00 31.5 31.3 31.7 0 7186 29.28 27.72 30.05 0 0 0